sensor_id;sensor_type;location;lat;lon;timestamp;pressure;altitude;pressure_sealevel;temperature;humidity
11099;BME280;12223;42.650;23.364;2023-03-16T00:02:21;93725.63;;;2.94;100.00
11099;BME280;12223;42.650;23.364;2023-03-16T00:04:48;93744.69;;;2.88;100.00
11099;BME280;12223;42.650;23.364;2023-03-16T00:07:15;93733.03;;;2.77;100.00
11099;BME280;12223;42.650;23.364;2023-03-16T00:09:42;93727.44;;;2.93;100.00
11099;BME280;12223;42.650;23.364;2023-03-16T00:12:12;93751.34;;;2.97;100.00
11099;BME280;12223;42.650;23.364;2023-03-16T00:14:40;93753.94;;;2.90;100.00
11099;BME280;12223;42.650;23.364;2023-03-16T00:17:07;93749.72;;;2.89;100.00
11099;BME280;12223;42.650;23.364;2023-03-16T00:19:35;93759.69;;;2.79;100.00
11099;BME280;12223;42.650;23.364;2023-03-16T00:22:02;93758.66;;;2.67;100.00
11099;BME280;12223;42.650;23.364;2023-03-16T00:24:29;93745.19;;;2.50;100.00
11099;BME280;12223;42.650;23.364;2023-03-16T00:26:56;93745.84;;;2.65;100.00
11099;BME280;12223;42.650;23.364;2023-03-16T00:29:23;93752.06;;;2.71;100.00
11099;BME280;12223;42.650;23.364;2023-03-16T00:31:49;93752.88;;;2.71;100.00
11099;BME280;12223;42.650;23.364;2023-03-16T00:34:16;93748.44;;;2.72;100.00
11099;BME280;12223;42.650;23.364;2023-03-16T00:36:45;93759.47;;;2.67;100.00
11099;BME280;12223;42.650;23.364;2023-03-16T00:39:11;93750.44;;;2.63;100.00
11099;BME280;12223;42.650;23.364;2023-03-16T00:41:39;93763.50;;;2.70;100.00
11099;BME280;12223;42.650;23.364;2023-03-16T00:44:07;93761.88;;;2.69;100.00
11099;BME280;12223;42.650;23.364;2023-03-16T00:46:34;93768.88;;;2.62;100.00
11099;BME280;12223;42.650;23.364;2023-03-16T00:49:01;93740.59;;;2.52;100.00
11099;BME280;12223;42.650;23.364;2023-03-16T00:51:28;93757.44;;;2.56;100.00
11099;BME280;12223;42.650;23.364;2023-03-16T00:53:59;93754.81;;;2.50;100.00
11099;BME280;12223;42.650;23.364;2023-03-16T00:56:26;93748.16;;;2.47;100.00
11099;BME280;12223;42.650;23.364;2023-03-16T00:58:53;93725.47;;;2.34;100.00
11099;BME280;12223;42.650;23.364;2023-03-16T01:01:22;93753.34;;;2.40;100.00
11099;BME280;12223;42.650;23.364;2023-03-16T01:03:49;93763.16;;;2.32;100.00
11099;BME280;12223;42.650;23.364;2023-03-16T01:06:17;93758.75;;;2.32;100.00
11099;BME280;12223;42.650;23.364;2023-03-16T01:08:45;93744.13;;;2.38;100.00
11099;BME280;12223;42.650;23.364;2023-03-16T01:11:15;93751.94;;;2.38;100.00
11099;BME280;12223;42.650;23.364;2023-03-16T01:13:43;93751.16;;;2.37;100.00
11099;BME280;12223;42.650;23.364;2023-03-16T01:16:11;93749.72;;;2.35;100.00
11099;BME280;12223;42.650;23.364;2023-03-16T01:18:39;93750.13;;;2.32;100.00
11099;BME280;12223;42.650;23.364;2023-03-16T01:21:08;93750.34;;;2.37;100.00
11099;BME280;12223;42.650;23.364;2023-03-16T01:23:38;93745.72;;;2.32;100.00
11099;BME280;12223;42.650;23.364;2023-03-16T01:26:05;93741.69;;;2.30;100.00
11099;BME280;12223;42.650;23.364;2023-03-16T01:28:34;93734.84;;;2.22;100.00
11099;BME280;12223;42.650;23.364;2023-03-16T01:31:04;93739.59;;;2.12;100.00
11099;BME280;12223;42.650;23.364;2023-03-16T01:33:32;93735.81;;;2.15;100.00
11099;BME280;12223;42.650;23.364;2023-03-16T01:36:01;93726.41;;;2.14;100.00
11099;BME280;12223;42.650;23.364;2023-03-16T01:38:28;93725.59;;;2.13;100.00
11099;BME280;12223;42.650;23.364;2023-03-16T01:40:55;93723.31;;;2.03;100.00
11099;BME280;12223;42.650;23.364;2023-03-16T01:43:24;93729.13;;;1.99;100.00
11099;BME280;12223;42.650;23.364;2023-03-16T01:46:19;93729.31;;;1.97;100.00
11099;BME280;12223;42.650;23.364;2023-03-16T01:48:57;93730.06;;;1.91;100.00
11099;BME280;12223;42.650;23.364;2023-03-16T01:51:28;93735.13;;;1.99;100.00
11099;BME280;12223;42.650;23.364;2023-03-16T01:54:00;93736.94;;;1.99;100.00
11099;BME280;12223;42.650;23.364;2023-03-16T01:56:32;93728.25;;;1.85;100.00
11099;BME280;12223;42.650;23.364;2023-03-16T01:59:01;93748.78;;;2.01;100.00
11099;BME280;12223;42.650;23.364;2023-03-16T02:01:32;93763.00;;;2.06;100.00
11099;BME280;12223;42.650;23.364;2023-03-16T02:04:06;93775.88;;;2.14;100.00
11099;BME280;12223;42.650;23.364;2023-03-16T02:06:33;93791.88;;;2.11;100.00
11099;BME280;12223;42.650;23.364;2023-03-16T02:09:01;93792.88;;;2.10;100.00
11099;BME280;12223;42.650;23.364;2023-03-16T02:11:30;93800.69;;;2.10;100.00
11099;BME280;12223;42.650;23.364;2023-03-16T02:14:03;93812.53;;;2.12;100.00
11099;BME280;12223;42.650;23.364;2023-03-16T02:16:34;93804.53;;;2.14;100.00
11099;BME280;12223;42.650;23.364;2023-03-16T02:19:01;93800.84;;;2.01;100.00
11099;BME280;12223;42.650;23.364;2023-03-16T02:21:33;93803.69;;;2.07;100.00
11099;BME280;12223;42.650;23.364;2023-03-16T02:24:01;93808.50;;;2.10;100.00
11099;BME280;12223;42.650;23.364;2023-03-16T02:26:33;93813.88;;;2.01;100.00
11099;BME280;12223;42.650;23.364;2023-03-16T02:29:13;93821.19;;;1.91;100.00
11099;BME280;12223;42.650;23.364;2023-03-16T02:31:44;93814.16;;;1.85;100.00
11099;BME280;12223;42.650;23.364;2023-03-16T02:34:13;93819.75;;;1.82;100.00
11099;BME280;12223;42.650;23.364;2023-03-16T02:36:43;93796.28;;;1.76;100.00
11099;BME280;12223;42.650;23.364;2023-03-16T02:39:11;93793.47;;;1.77;100.00
11099;BME280;12223;42.650;23.364;2023-03-16T02:41:38;93788.03;;;1.72;100.00
11099;BME280;12223;42.650;23.364;2023-03-16T02:44:08;93785.47;;;1.79;100.00
11099;BME280;12223;42.650;23.364;2023-03-16T02:46:40;93773.03;;;1.74;100.00
11099;BME280;12223;42.650;23.364;2023-03-16T02:49:11;93779.28;;;1.80;100.00
11099;BME280;12223;42.650;23.364;2023-03-16T02:51:40;93782.88;;;1.79;100.00
11099;BME280;12223;42.650;23.364;2023-03-16T02:54:07;93781.81;;;1.73;100.00
11099;BME280;12223;42.650;23.364;2023-03-16T02:56:34;93771.22;;;1.75;100.00
11099;BME280;12223;42.650;23.364;2023-03-16T02:59:01;93770.00;;;1.71;100.00
11099;BME280;12223;42.650;23.364;2023-03-16T03:01:27;93769.63;;;1.74;100.00
11099;BME280;12223;42.650;23.364;2023-03-16T03:03:56;93769.03;;;1.78;100.00
11099;BME280;12223;42.650;23.364;2023-03-16T03:06:24;93765.22;;;1.74;100.00
11099;BME280;12223;42.650;23.364;2023-03-16T03:08:51;93764.19;;;1.69;100.00
11099;BME280;12223;42.650;23.364;2023-03-16T03:11:18;93775.59;;;1.68;100.00
11099;BME280;12223;42.650;23.364;2023-03-16T03:13:45;93784.00;;;1.70;100.00
11099;BME280;12223;42.650;23.364;2023-03-16T03:16:12;93782.41;;;1.69;100.00
11099;BME280;12223;42.650;23.364;2023-03-16T03:18:39;93785.41;;;1.72;100.00
11099;BME280;12223;42.650;23.364;2023-03-16T03:21:06;93781.38;;;1.63;100.00
11099;BME280;12223;42.650;23.364;2023-03-16T03:23:34;93794.59;;;1.68;100.00
11099;BME280;12223;42.650;23.364;2023-03-16T03:26:01;93792.63;;;1.70;100.00
11099;BME280;12223;42.650;23.364;2023-03-16T03:28:28;93791.25;;;1.74;100.00
11099;BME280;12223;42.650;23.364;2023-03-16T03:30:55;93794.59;;;1.68;100.00
11099;BME280;12223;42.650;23.364;2023-03-16T03:33:24;93797.34;;;1.60;100.00
11099;BME280;12223;42.650;23.364;2023-03-16T03:35:53;93806.94;;;1.59;100.00
11099;BME280;12223;42.650;23.364;2023-03-16T03:38:20;93817.13;;;1.54;100.00
11099;BME280;12223;42.650;23.364;2023-03-16T03:40:49;93823.25;;;1.47;100.00
11099;BME280;12223;42.650;23.364;2023-03-16T03:43:16;93813.81;;;1.46;100.00
11099;BME280;12223;42.650;23.364;2023-03-16T03:45:43;93822.19;;;1.41;100.00
11099;BME280;12223;42.650;23.364;2023-03-16T03:48:09;93815.59;;;1.39;100.00
11099;BME280;12223;42.650;23.364;2023-03-16T03:50:36;93831.94;;;1.33;100.00
11099;BME280;12223;42.650;23.364;2023-03-16T03:53:05;93827.47;;;1.27;100.00
11099;BME280;12223;42.650;23.364;2023-03-16T03:55:32;93814.78;;;1.17;100.00
11099;BME280;12223;42.650;23.364;2023-03-16T03:58:00;93850.09;;;1.26;100.00
11099;BME280;12223;42.650;23.364;2023-03-16T04:00:27;93840.22;;;1.21;100.00
11099;BME280;12223;42.650;23.364;2023-03-16T04:02:54;93853.84;;;1.24;100.00
11099;BME280;12223;42.650;23.364;2023-03-16T04:05:20;93869.03;;;1.20;100.00
11099;BME280;12223;42.650;23.364;2023-03-16T04:07:50;93868.47;;;1.25;100.00
11099;BME280;12223;42.650;23.364;2023-03-16T04:10:19;93880.09;;;1.29;100.00
11099;BME280;12223;42.650;23.364;2023-03-16T04:12:46;93882.34;;;1.32;100.00
11099;BME280;12223;42.650;23.364;2023-03-16T04:15:14;93877.75;;;1.34;100.00
11099;BME280;12223;42.650;23.364;2023-03-16T04:17:42;93881.66;;;1.23;100.00
11099;BME280;12223;42.650;23.364;2023-03-16T04:20:10;93874.47;;;1.25;100.00
11099;BME280;12223;42.650;23.364;2023-03-16T04:22:40;93870.50;;;1.29;100.00
11099;BME280;12223;42.650;23.364;2023-03-16T04:25:08;93872.75;;;1.32;100.00
11099;BME280;12223;42.650;23.364;2023-03-16T04:27:35;93866.84;;;1.24;100.00
11099;BME280;12223;42.650;23.364;2023-03-16T04:30:04;93863.38;;;1.16;100.00
11099;BME280;12223;42.650;23.364;2023-03-16T04:32:33;93871.06;;;1.25;100.00
11099;BME280;12223;42.650;23.364;2023-03-16T04:35:00;93880.28;;;1.27;100.00
11099;BME280;12223;42.650;23.364;2023-03-16T04:37:27;93886.28;;;1.28;100.00
11099;BME280;12223;42.650;23.364;2023-03-16T04:39:54;93897.97;;;1.32;100.00
11099;BME280;12223;42.650;23.364;2023-03-16T04:42:21;93902.94;;;1.33;100.00
11099;BME280;12223;42.650;23.364;2023-03-16T04:44:48;93904.31;;;1.29;100.00
11099;BME280;12223;42.650;23.364;2023-03-16T04:47:15;93921.66;;;1.22;100.00
11099;BME280;12223;42.650;23.364;2023-03-16T04:49:44;93922.84;;;1.19;100.00
11099;BME280;12223;42.650;23.364;2023-03-16T04:52:11;93921.28;;;1.25;100.00
11099;BME280;12223;42.650;23.364;2023-03-16T04:54:39;93931.06;;;1.23;100.00
11099;BME280;12223;42.650;23.364;2023-03-16T04:57:06;93926.91;;;1.29;100.00
11099;BME280;12223;42.650;23.364;2023-03-16T04:59:32;93941.19;;;1.33;100.00
11099;BME280;12223;42.650;23.364;2023-03-16T05:01:59;93942.53;;;1.29;100.00
11099;BME280;12223;42.650;23.364;2023-03-16T05:04:26;93945.75;;;1.31;100.00
11099;BME280;12223;42.650;23.364;2023-03-16T05:06:55;93954.19;;;1.33;100.00
11099;BME280;12223;42.650;23.364;2023-03-16T05:09:21;93939.81;;;1.37;100.00
11099;BME280;12223;42.650;23.364;2023-03-16T05:11:48;93931.84;;;1.38;100.00
11099;BME280;12223;42.650;23.364;2023-03-16T05:14:15;93941.19;;;1.33;100.00
11099;BME280;12223;42.650;23.364;2023-03-16T05:16:42;93955.31;;;1.45;100.00
11099;BME280;12223;42.650;23.364;2023-03-16T05:19:09;93964.28;;;1.42;100.00
11099;BME280;12223;42.650;23.364;2023-03-16T05:21:36;93965.72;;;1.45;100.00
11099;BME280;12223;42.650;23.364;2023-03-16T05:24:05;93969.75;;;1.47;100.00
11099;BME280;12223;42.650;23.364;2023-03-16T05:26:33;93981.03;;;1.54;100.00
11099;BME280;12223;42.650;23.364;2023-03-16T05:29:00;93989.66;;;1.55;100.00
11099;BME280;12223;42.650;23.364;2023-03-16T05:31:26;93992.41;;;1.53;100.00
11099;BME280;12223;42.650;23.364;2023-03-16T05:33:56;93999.97;;;1.48;100.00
11099;BME280;12223;42.650;23.364;2023-03-16T05:36:23;94003.22;;;1.50;100.00
11099;BME280;12223;42.650;23.364;2023-03-16T05:38:50;94005.44;;;1.53;100.00
11099;BME280;12223;42.650;23.364;2023-03-16T05:41:19;93999.63;;;1.51;100.00
11099;BME280;12223;42.650;23.364;2023-03-16T05:43:46;94006.16;;;1.62;100.00
11099;BME280;12223;42.650;23.364;2023-03-16T05:46:12;93999.63;;;1.51;100.00
11099;BME280;12223;42.650;23.364;2023-03-16T05:48:39;94001.91;;;1.61;100.00
11099;BME280;12223;42.650;23.364;2023-03-16T05:51:06;94011.16;;;1.64;100.00
11099;BME280;12223;42.650;23.364;2023-03-16T05:53:33;94025.91;;;1.56;100.00
11099;BME280;12223;42.650;23.364;2023-03-16T05:55:59;94015.81;;;1.68;100.00
11099;BME280;12223;42.650;23.364;2023-03-16T05:58:28;94015.81;;;1.68;100.00
11099;BME280;12223;42.650;23.364;2023-03-16T06:00:58;94030.19;;;1.64;100.00
11099;BME280;12223;42.650;23.364;2023-03-16T06:03:25;94037.38;;;1.62;100.00
11099;BME280;12223;42.650;23.364;2023-03-16T06:05:52;94040.88;;;1.54;100.00
11099;BME280;12223;42.650;23.364;2023-03-16T06:08:19;94041.59;;;1.48;100.00
11099;BME280;12223;42.650;23.364;2023-03-16T06:10:46;94044.22;;;1.48;100.00
11099;BME280;12223;42.650;23.364;2023-03-16T06:13:13;94037.63;;;1.52;100.00
11099;BME280;12223;42.650;23.364;2023-03-16T06:15:41;94047.69;;;1.55;100.00
11099;BME280;12223;42.650;23.364;2023-03-16T06:18:08;94045.34;;;1.60;100.00
11099;BME280;12223;42.650;23.364;2023-03-16T06:20:35;94066.00;;;1.62;100.00
11099;BME280;12223;42.650;23.364;2023-03-16T06:23:02;94077.22;;;1.63;100.00
11099;BME280;12223;42.650;23.364;2023-03-16T06:25:29;94078.84;;;1.64;100.00
11099;BME280;12223;42.650;23.364;2023-03-16T06:27:56;94090.38;;;1.76;100.00
11099;BME280;12223;42.650;23.364;2023-03-16T06:30:24;94097.28;;;1.83;100.00
11099;BME280;12223;42.650;23.364;2023-03-16T06:32:52;94101.13;;;1.87;100.00
11099;BME280;12223;42.650;23.364;2023-03-16T06:35:19;94108.03;;;1.95;100.00
11099;BME280;12223;42.650;23.364;2023-03-16T06:37:45;94114.38;;;2.07;100.00
11099;BME280;12223;42.650;23.364;2023-03-16T06:40:12;94103.59;;;2.10;100.00
11099;BME280;12223;42.650;23.364;2023-03-16T06:42:39;94141.91;;;2.16;100.00
11099;BME280;12223;42.650;23.364;2023-03-16T06:45:07;94146.84;;;2.26;100.00
11099;BME280;12223;42.650;23.364;2023-03-16T06:47:34;94131.81;;;2.28;100.00
11099;BME280;12223;42.650;23.364;2023-03-16T06:50:03;94168.00;;;2.37;100.00
11099;BME280;12223;42.650;23.364;2023-03-16T06:52:31;94163.88;;;2.43;100.00
11099;BME280;12223;42.650;23.364;2023-03-16T06:54:57;94170.69;;;2.44;100.00
11099;BME280;12223;42.650;23.364;2023-03-16T06:57:24;94192.34;;;2.45;100.00
11099;BME280;12223;42.650;23.364;2023-03-16T06:59:51;94192.78;;;2.48;100.00
11099;BME280;12223;42.650;23.364;2023-03-16T07:02:18;94205.63;;;2.50;100.00
11099;BME280;12223;42.650;23.364;2023-03-16T07:04:47;94181.38;;;2.13;100.00
11099;BME280;12223;42.650;23.364;2023-03-16T07:07:16;94186.41;;;2.15;100.00
11099;BME280;12223;42.650;23.364;2023-03-16T07:09:43;94223.38;;;2.25;100.00
11099;BME280;12223;42.650;23.364;2023-03-16T07:12:10;94224.19;;;2.25;100.00
11099;BME280;12223;42.650;23.364;2023-03-16T07:14:38;94217.94;;;2.41;100.00
11099;BME280;12223;42.650;23.364;2023-03-16T07:17:05;94235.28;;;2.49;100.00
11099;BME280;12223;42.650;23.364;2023-03-16T07:19:32;94232.31;;;2.52;100.00
11099;BME280;12223;42.650;23.364;2023-03-16T07:21:59;94226.56;;;2.56;100.00
11099;BME280;12223;42.650;23.364;2023-03-16T07:24:28;94235.75;;;2.52;100.00
11099;BME280;12223;42.650;23.364;2023-03-16T07:26:57;94230.44;;;2.46;100.00
11099;BME280;12223;42.650;23.364;2023-03-16T07:29:24;94229.38;;;2.40;100.00
11099;BME280;12223;42.650;23.364;2023-03-16T07:31:51;94214.75;;;2.39;100.00
11099;BME280;12223;42.650;23.364;2023-03-16T07:34:18;94228.59;;;2.61;100.00
11099;BME280;12223;42.650;23.364;2023-03-16T07:36:46;94221.00;;;2.59;100.00
11099;BME280;12223;42.650;23.364;2023-03-16T07:39:17;94233.06;;;2.67;100.00
11099;BME280;12223;42.650;23.364;2023-03-16T07:41:45;94220.72;;;2.54;100.00
11099;BME280;12223;42.650;23.364;2023-03-16T07:44:12;94252.31;;;2.66;100.00
11099;BME280;12223;42.650;23.364;2023-03-16T07:46:38;94238.94;;;2.69;100.00
11099;BME280;12223;42.650;23.364;2023-03-16T07:49:05;94242.78;;;2.73;100.00
11099;BME280;12223;42.650;23.364;2023-03-16T07:51:34;94264.34;;;2.81;100.00
11099;BME280;12223;42.650;23.364;2023-03-16T07:54:00;94213.66;;;2.69;100.00
11099;BME280;12223;42.650;23.364;2023-03-16T07:56:28;94267.28;;;3.14;100.00
11099;BME280;12223;42.650;23.364;2023-03-16T07:58:59;94265.84;;;3.12;100.00
11099;BME280;12223;42.650;23.364;2023-03-16T08:01:27;94255.16;;;3.07;100.00
11099;BME280;12223;42.650;23.364;2023-03-16T08:03:54;94273.50;;;3.13;100.00
11099;BME280;12223;42.650;23.364;2023-03-16T08:06:21;94273.75;;;3.18;100.00
11099;BME280;12223;42.650;23.364;2023-03-16T08:08:49;94271.50;;;3.37;100.00
11099;BME280;12223;42.650;23.364;2023-03-16T08:11:16;94284.59;;;3.43;100.00
11099;BME280;12223;42.650;23.364;2023-03-16T08:13:48;94293.13;;;3.52;100.00
11099;BME280;12223;42.650;23.364;2023-03-16T08:16:20;94294.78;;;3.59;100.00
11099;BME280;12223;42.650;23.364;2023-03-16T08:18:47;94295.69;;;3.73;100.00
11099;BME280;12223;42.650;23.364;2023-03-16T08:21:16;94293.47;;;3.70;100.00
11099;BME280;12223;42.650;23.364;2023-03-16T08:23:44;94297.88;;;3.70;100.00
11099;BME280;12223;42.650;23.364;2023-03-16T08:26:14;94316.16;;;3.70;100.00
11099;BME280;12223;42.650;23.364;2023-03-16T08:28:42;94300.78;;;3.81;100.00
11099;BME280;12223;42.650;23.364;2023-03-16T08:31:11;94317.66;;;3.79;100.00
11099;BME280;12223;42.650;23.364;2023-03-16T08:33:41;94312.38;;;3.72;100.00
11099;BME280;12223;42.650;23.364;2023-03-16T08:36:11;94299.78;;;3.33;100.00
11099;BME280;12223;42.650;23.364;2023-03-16T08:38:40;94307.97;;;3.51;100.00
11099;BME280;12223;42.650;23.364;2023-03-16T08:41:07;94309.25;;;3.62;100.00
11099;BME280;12223;42.650;23.364;2023-03-16T08:43:34;94310.31;;;3.68;100.00
11099;BME280;12223;42.650;23.364;2023-03-16T08:46:02;94296.91;;;3.49;100.00
11099;BME280;12223;42.650;23.364;2023-03-16T08:48:29;94320.00;;;3.74;100.00
11099;BME280;12223;42.650;23.364;2023-03-16T08:51:02;94327.34;;;3.63;100.00
11099;BME280;12223;42.650;23.364;2023-03-16T08:53:30;94329.63;;;3.73;100.00
11099;BME280;12223;42.650;23.364;2023-03-16T08:56:01;94331.72;;;3.56;100.00
11099;BME280;12223;42.650;23.364;2023-03-16T08:58:29;94325.44;;;3.72;100.00
11099;BME280;12223;42.650;23.364;2023-03-16T09:00:57;94326.88;;;3.53;100.00
11099;BME280;12223;42.650;23.364;2023-03-16T09:03:23;94332.41;;;3.65;100.00
11099;BME280;12223;42.650;23.364;2023-03-16T09:05:50;94345.69;;;3.70;100.00
11099;BME280;12223;42.650;23.364;2023-03-16T09:08:19;94333.13;;;3.80;100.00
11099;BME280;12223;42.650;23.364;2023-03-16T09:10:46;94333.94;;;3.81;100.00
11099;BME280;12223;42.650;23.364;2023-03-16T09:13:13;94345.88;;;3.69;100.00
11099;BME280;12223;42.650;23.364;2023-03-16T09:15:40;94352.78;;;3.55;100.00
11099;BME280;12223;42.650;23.364;2023-03-16T09:18:07;94337.25;;;3.47;100.00
11099;BME280;12223;42.650;23.364;2023-03-16T09:20:34;94345.75;;;3.55;100.00
11099;BME280;12223;42.650;23.364;2023-03-16T09:23:01;94349.84;;;3.43;100.00
11099;BME280;12223;42.650;23.364;2023-03-16T09:25:30;94354.47;;;3.41;100.00
11099;BME280;12223;42.650;23.364;2023-03-16T09:27:58;94346.94;;;3.32;100.00
11099;BME280;12223;42.650;23.364;2023-03-16T09:30:25;94333.47;;;3.28;100.00
11099;BME280;12223;42.650;23.364;2023-03-16T09:32:52;94355.75;;;3.31;100.00
11099;BME280;12223;42.650;23.364;2023-03-16T09:35:19;94342.53;;;3.32;100.00
11099;BME280;12223;42.650;23.364;2023-03-16T09:37:46;94351.06;;;3.41;100.00
11099;BME280;12223;42.650;23.364;2023-03-16T09:40:21;94338.44;;;3.44;100.00
11099;BME280;12223;42.650;23.364;2023-03-16T09:42:58;94352.09;;;3.46;100.00
11099;BME280;12223;42.650;23.364;2023-03-16T09:45:36;94345.84;;;3.41;100.00
11099;BME280;12223;42.650;23.364;2023-03-16T09:48:08;94362.72;;;3.45;100.00
11099;BME280;12223;42.650;23.364;2023-03-16T09:50:38;94359.47;;;3.43;100.00
11099;BME280;12223;42.650;23.364;2023-03-16T09:53:12;94358.81;;;3.55;100.00
11099;BME280;12223;42.650;23.364;2023-03-16T09:55:44;94367.22;;;3.51;100.00
11099;BME280;12223;42.650;23.364;2023-03-16T09:58:16;94362.22;;;3.56;100.00
11099;BME280;12223;42.650;23.364;2023-03-16T10:00:47;94365.16;;;3.46;100.00
11099;BME280;12223;42.650;23.364;2023-03-16T10:03:27;94367.00;;;3.31;100.00
11099;BME280;12223;42.650;23.364;2023-03-16T10:06:00;94367.44;;;3.35;100.00
11099;BME280;12223;42.650;23.364;2023-03-16T10:08:32;94364.28;;;3.39;100.00
11099;BME280;12223;42.650;23.364;2023-03-16T10:14:07;94356.94;;;3.28;100.00
11099;BME280;12223;42.650;23.364;2023-03-16T10:16:46;94336.91;;;3.35;100.00
11099;BME280;12223;42.650;23.364;2023-03-16T10:19:17;94359.78;;;3.54;100.00
11099;BME280;12223;42.650;23.364;2023-03-16T10:21:48;94348.50;;;3.69;100.00
11099;BME280;12223;42.650;23.364;2023-03-16T10:24:26;94352.28;;;3.66;100.00
11099;BME280;12223;42.650;23.364;2023-03-16T10:26:59;94358.63;;;3.78;100.00
11099;BME280;12223;42.650;23.364;2023-03-16T10:29:34;94357.19;;;3.76;100.00
11099;BME280;12223;42.650;23.364;2023-03-16T10:32:11;94366.94;;;3.88;100.00
11099;BME280;12223;42.650;23.364;2023-03-16T10:34:42;94367.69;;;3.82;100.00
11099;BME280;12223;42.650;23.364;2023-03-16T10:37:12;94368.00;;;3.94;100.00
11099;BME280;12223;42.650;23.364;2023-03-16T10:39:39;94349.56;;;3.53;100.00
11099;BME280;12223;42.650;23.364;2023-03-16T10:42:14;94374.34;;;3.63;100.00
11099;BME280;12223;42.650;23.364;2023-03-16T10:44:44;94345.06;;;3.68;100.00
11099;BME280;12223;42.650;23.364;2023-03-16T10:47:17;94363.16;;;3.91;100.00
11099;BME280;12223;42.650;23.364;2023-03-16T10:49:45;94366.44;;;3.99;100.00
11099;BME280;12223;42.650;23.364;2023-03-16T10:52:17;94367.88;;;4.02;100.00
11099;BME280;12223;42.650;23.364;2023-03-16T10:54:53;94366.59;;;3.91;100.00
11099;BME280;12223;42.650;23.364;2023-03-16T10:57:23;94359.06;;;3.82;100.00
11099;BME280;12223;42.650;23.364;2023-03-16T10:59:53;94367.63;;;3.97;100.00
11099;BME280;12223;42.650;23.364;2023-03-16T11:02:23;94369.59;;;4.16;100.00
11099;BME280;12223;42.650;23.364;2023-03-16T11:04:52;94380.88;;;3.74;100.00
11099;BME280;12223;42.650;23.364;2023-03-16T11:07:21;94297.88;;;3.48;100.00
11099;BME280;12223;42.650;23.364;2023-03-16T11:09:50;94366.69;;;4.04;100.00
11099;BME280;12223;42.650;23.364;2023-03-16T11:12:24;94337.63;;;3.93;100.00
11099;BME280;12223;42.650;23.364;2023-03-16T11:14:52;94380.09;;;4.23;100.00
11099;BME280;12223;42.650;23.364;2023-03-16T11:17:23;94358.09;;;4.11;100.00
11099;BME280;12223;42.650;23.364;2023-03-16T11:19:57;94377.84;;;3.92;100.00
11099;BME280;12223;42.650;23.364;2023-03-16T11:22:26;94379.25;;;3.94;100.00
11099;BME280;12223;42.650;23.364;2023-03-16T11:25:01;94366.94;;;3.88;100.00
11099;BME280;12223;42.650;23.364;2023-03-16T11:27:34;94373.19;;;4.15;100.00
11099;BME280;12223;42.650;23.364;2023-03-16T11:30:08;94366.25;;;3.80;100.00
11099;BME280;12223;42.650;23.364;2023-03-16T11:32:40;94382.75;;;3.80;100.00
11099;BME280;12223;42.650;23.364;2023-03-16T11:35:14;94380.25;;;3.93;100.00
11099;BME280;12223;42.650;23.364;2023-03-16T11:37:54;94374.25;;;3.99;100.00
11099;BME280;12223;42.650;23.364;2023-03-16T11:40:35;94392.13;;;3.75;100.00
11099;BME280;12223;42.650;23.364;2023-03-16T11:43:15;94375.59;;;3.89;100.00
11099;BME280;12223;42.650;23.364;2023-03-16T11:45:52;94378.25;;;3.95;100.00
11099;BME280;12223;42.650;23.364;2023-03-16T11:48:28;94338.16;;;3.60;100.00
11099;BME280;12223;42.650;23.364;2023-03-16T11:51:08;94373.59;;;3.91;100.00
11099;BME280;12223;42.650;23.364;2023-03-16T11:53:47;94368.63;;;3.96;100.00
11099;BME280;12223;42.650;23.364;2023-03-16T11:56:25;94376.91;;;3.78;100.00
11099;BME280;12223;42.650;23.364;2023-03-16T11:59:14;94393.50;;;3.71;100.00
11099;BME280;12223;42.650;23.364;2023-03-16T12:01:53;94400.72;;;3.69;100.00
11099;BME280;12223;42.650;23.364;2023-03-16T12:04:35;94384.66;;;3.50;100.00
11099;BME280;12223;42.650;23.364;2023-03-16T12:07:29;94393.72;;;3.54;100.00
11099;BME280;12223;42.650;23.364;2023-03-16T12:10:23;94403.56;;;3.52;100.00
11099;BME280;12223;42.650;23.364;2023-03-16T12:13:03;94396.34;;;3.33;100.00
11099;BME280;12223;42.650;23.364;2023-03-16T12:15:42;94385.91;;;3.33;100.00
11099;BME280;12223;42.650;23.364;2023-03-16T12:18:16;94411.94;;;3.48;100.00
11099;BME280;12223;42.650;23.364;2023-03-16T12:20:48;94402.06;;;3.43;100.00
11099;BME280;12223;42.650;23.364;2023-03-16T12:23:20;94402.69;;;3.45;100.00
11099;BME280;12223;42.650;23.364;2023-03-16T12:25:52;94380.16;;;3.23;100.00
11099;BME280;12223;42.650;23.364;2023-03-16T12:28:29;94403.78;;;3.36;100.00
11099;BME280;12223;42.650;23.364;2023-03-16T12:31:06;94406.44;;;3.57;100.00
11099;BME280;12223;42.650;23.364;2023-03-16T12:36:49;94413.09;;;3.60;100.00
11099;BME280;12223;42.650;23.364;2023-03-16T12:39:28;94415.19;;;3.50;100.00
11099;BME280;12223;42.650;23.364;2023-03-16T12:42:12;94425.00;;;3.48;100.00
11099;BME280;12223;42.650;23.364;2023-03-16T12:44:46;94417.53;;;3.45;100.00
11099;BME280;12223;42.650;23.364;2023-03-16T12:47:19;94411.91;;;3.41;100.00
11099;BME280;12223;42.650;23.364;2023-03-16T12:50:05;94424.88;;;3.35;100.00
11099;BME280;12223;42.650;23.364;2023-03-16T12:52:40;94429.34;;;3.41;100.00
11099;BME280;12223;42.650;23.364;2023-03-16T12:55:14;94433.94;;;3.39;100.00
11099;BME280;12223;42.650;23.364;2023-03-16T12:57:42;94413.53;;;3.28;100.00
11099;BME280;12223;42.650;23.364;2023-03-16T13:00:10;94435.84;;;3.30;100.00
11099;BME280;12223;42.650;23.364;2023-03-16T13:02:43;94429.94;;;3.21;100.00
11099;BME280;12223;42.650;23.364;2023-03-16T13:05:15;94421.56;;;3.26;100.00
11099;BME280;12223;42.650;23.364;2023-03-16T13:07:49;94396.22;;;3.05;100.00
11099;BME280;12223;42.650;23.364;2023-03-16T13:10:18;94411.34;;;2.95;100.00